VIR weather

Virginia Airport
Durban, Kwazulu-Natal, South Africa

Public forecast

Using degrees Celsius for public forecast. Weather courtesy of forecast.io.

Closest aviation weather report (METAR) to Virginia Airport

Closest report is King Shaka International Airport, 9.9 nm (18.3 km) NNE. Retrieved 2020/01/25 01:00 UTC (36 minutes ago):

FALE 250100Z 34004KT CAVOK 23/20 Q1013 NOSIG

Closest aviation forecast (TAF) to Virginia Airport

Closest forecast is King Shaka International Airport, 9.9 nm (18.3 km) NNE. Retrieved 2020-01-25 00:00 UTC (2 hours ago):

TAF FALE 242200Z 2500/2606 03008KT 9999 SCT020 TX30/2512Z TN20/2503Z BECMG 2508/2510 04015KT CAVOK BECMG 2520/2522 33005KT